sensor_id;sensor_type;location;lat;lon;timestamp;P1;durP1;ratioP1;P2;durP2;ratioP2
12663;SDS011;6396;58.490;15.528;2023-05-07T00:01:37;2.63;;;2.30;;
12663;SDS011;6396;58.490;15.528;2023-05-07T00:04:04;4.03;;;2.50;;
12663;SDS011;6396;58.490;15.528;2023-05-07T00:06:32;3.67;;;2.63;;
12663;SDS011;6396;58.490;15.528;2023-05-07T00:08:59;4.37;;;2.50;;
12663;SDS011;6396;58.490;15.528;2023-05-07T00:11:27;4.30;;;2.67;;
12663;SDS011;6396;58.490;15.528;2023-05-07T00:13:54;4.40;;;2.73;;
12663;SDS011;6396;58.490;15.528;2023-05-07T00:16:21;3.23;;;2.80;;
12663;SDS011;6396;58.490;15.528;2023-05-07T00:18:48;4.57;;;3.10;;
12663;SDS011;6396;58.490;15.528;2023-05-07T00:21:15;5.23;;;2.83;;
12663;SDS011;6396;58.490;15.528;2023-05-07T00:23:42;3.80;;;2.70;;
12663;SDS011;6396;58.490;15.528;2023-05-07T00:26:08;3.20;;;2.90;;
12663;SDS011;6396;58.490;15.528;2023-05-07T00:28:36;6.47;;;2.93;;
12663;SDS011;6396;58.490;15.528;2023-05-07T00:31:03;3.90;;;2.77;;
12663;SDS011;6396;58.490;15.528;2023-05-07T00:33:30;4.27;;;2.33;;
12663;SDS011;6396;58.490;15.528;2023-05-07T00:35:57;3.13;;;2.60;;
12663;SDS011;6396;58.490;15.528;2023-05-07T00:38:26;3.43;;;2.63;;
12663;SDS011;6396;58.490;15.528;2023-05-07T00:40:52;3.63;;;2.50;;
12663;SDS011;6396;58.490;15.528;2023-05-07T00:43:19;4.93;;;3.10;;
12663;SDS011;6396;58.490;15.528;2023-05-07T00:45:48;2.60;;;2.40;;
12663;SDS011;6396;58.490;15.528;2023-05-07T00:48:15;3.27;;;2.37;;
12663;SDS011;6396;58.490;15.528;2023-05-07T00:50:43;3.53;;;2.50;;
12663;SDS011;6396;58.490;15.528;2023-05-07T00:53:12;3.27;;;2.80;;
12663;SDS011;6396;58.490;15.528;2023-05-07T00:55:39;3.77;;;2.67;;
12663;SDS011;6396;58.490;15.528;2023-05-07T00:58:06;3.33;;;2.97;;
12663;SDS011;6396;58.490;15.528;2023-05-07T01:00:33;3.10;;;2.50;;
12663;SDS011;6396;58.490;15.528;2023-05-07T01:03:02;4.37;;;2.80;;
12663;SDS011;6396;58.490;15.528;2023-05-07T01:05:29;4.60;;;2.50;;
12663;SDS011;6396;58.490;15.528;2023-05-07T01:07:56;3.23;;;2.60;;
12663;SDS011;6396;58.490;15.528;2023-05-07T01:10:24;3.33;;;2.80;;
12663;SDS011;6396;58.490;15.528;2023-05-07T01:12:51;3.80;;;2.77;;
12663;SDS011;6396;58.490;15.528;2023-05-07T01:15:18;3.00;;;2.70;;
12663;SDS011;6396;58.490;15.528;2023-05-07T01:17:45;2.70;;;2.50;;
12663;SDS011;6396;58.490;15.528;2023-05-07T01:20:14;3.13;;;2.67;;
12663;SDS011;6396;58.490;15.528;2023-05-07T01:22:42;3.80;;;2.70;;
12663;SDS011;6396;58.490;15.528;2023-05-07T01:25:10;4.60;;;2.80;;
12663;SDS011;6396;58.490;15.528;2023-05-07T01:27:36;3.57;;;2.70;;
12663;SDS011;6396;58.490;15.528;2023-05-07T01:30:04;4.00;;;3.03;;
12663;SDS011;6396;58.490;15.528;2023-05-07T01:32:33;4.80;;;2.97;;
12663;SDS011;6396;58.490;15.528;2023-05-07T01:35:05;3.07;;;2.67;;
12663;SDS011;6396;58.490;15.528;2023-05-07T01:37:35;5.00;;;2.70;;
12663;SDS011;6396;58.490;15.528;2023-05-07T01:40:05;3.53;;;2.80;;
12663;SDS011;6396;58.490;15.528;2023-05-07T01:42:33;3.23;;;2.43;;
12663;SDS011;6396;58.490;15.528;2023-05-07T01:45:00;4.23;;;2.93;;
12663;SDS011;6396;58.490;15.528;2023-05-07T01:47:27;4.93;;;2.93;;
12663;SDS011;6396;58.490;15.528;2023-05-07T01:49:55;3.63;;;3.33;;
12663;SDS011;6396;58.490;15.528;2023-05-07T01:52:23;3.43;;;2.73;;
12663;SDS011;6396;58.490;15.528;2023-05-07T01:54:50;4.47;;;3.20;;
12663;SDS011;6396;58.490;15.528;2023-05-07T01:57:18;3.43;;;3.07;;
12663;SDS011;6396;58.490;15.528;2023-05-07T01:59:46;3.90;;;3.07;;
12663;SDS011;6396;58.490;15.528;2023-05-07T02:02:12;3.70;;;2.77;;
12663;SDS011;6396;58.490;15.528;2023-05-07T02:04:39;4.30;;;3.07;;
12663;SDS011;6396;58.490;15.528;2023-05-07T02:07:06;3.30;;;2.97;;
12663;SDS011;6396;58.490;15.528;2023-05-07T02:09:33;4.13;;;3.13;;
12663;SDS011;6396;58.490;15.528;2023-05-07T02:12:00;4.80;;;2.83;;
12663;SDS011;6396;58.490;15.528;2023-05-07T02:14:28;4.30;;;2.80;;
12663;SDS011;6396;58.490;15.528;2023-05-07T02:16:55;3.20;;;2.80;;
12663;SDS011;6396;58.490;15.528;2023-05-07T02:19:22;4.37;;;2.93;;
12663;SDS011;6396;58.490;15.528;2023-05-07T02:21:48;3.30;;;2.70;;
12663;SDS011;6396;58.490;15.528;2023-05-07T02:24:16;6.27;;;3.00;;
12663;SDS011;6396;58.490;15.528;2023-05-07T02:26:42;6.27;;;3.40;;
12663;SDS011;6396;58.490;15.528;2023-05-07T02:29:09;3.10;;;2.80;;
12663;SDS011;6396;58.490;15.528;2023-05-07T02:31:37;3.27;;;2.97;;
12663;SDS011;6396;58.490;15.528;2023-05-07T02:34:04;4.80;;;2.83;;
12663;SDS011;6396;58.490;15.528;2023-05-07T02:36:31;4.43;;;3.37;;
12663;SDS011;6396;58.490;15.528;2023-05-07T02:38:58;3.37;;;2.70;;
12663;SDS011;6396;58.490;15.528;2023-05-07T02:41:25;7.50;;;3.40;;
12663;SDS011;6396;58.490;15.528;2023-05-07T02:43:53;4.80;;;3.13;;
12663;SDS011;6396;58.490;15.528;2023-05-07T02:46:19;3.20;;;2.60;;
12663;SDS011;6396;58.490;15.528;2023-05-07T02:48:48;3.33;;;3.03;;
12663;SDS011;6396;58.490;15.528;2023-05-07T02:51:14;4.73;;;2.93;;
12663;SDS011;6396;58.490;15.528;2023-05-07T02:53:42;3.80;;;3.30;;
12663;SDS011;6396;58.490;15.528;2023-05-07T02:56:09;4.53;;;2.63;;
12663;SDS011;6396;58.490;15.528;2023-05-07T02:58:36;3.47;;;2.97;;
12663;SDS011;6396;58.490;15.528;2023-05-07T03:01:04;3.20;;;2.70;;
12663;SDS011;6396;58.490;15.528;2023-05-07T03:03:31;3.30;;;2.60;;
12663;SDS011;6396;58.490;15.528;2023-05-07T03:05:59;4.67;;;3.30;;
12663;SDS011;6396;58.490;15.528;2023-05-07T03:08:26;5.77;;;2.83;;
12663;SDS011;6396;58.490;15.528;2023-05-07T03:10:53;3.30;;;3.00;;
12663;SDS011;6396;58.490;15.528;2023-05-07T03:13:20;3.57;;;2.90;;
12663;SDS011;6396;58.490;15.528;2023-05-07T03:15:47;4.47;;;2.73;;
12663;SDS011;6396;58.490;15.528;2023-05-07T03:18:14;5.13;;;3.03;;
12663;SDS011;6396;58.490;15.528;2023-05-07T03:20:40;4.87;;;2.50;;
12663;SDS011;6396;58.490;15.528;2023-05-07T03:23:08;3.20;;;2.40;;
12663;SDS011;6396;58.490;15.528;2023-05-07T03:25:35;5.63;;;3.10;;
12663;SDS011;6396;58.490;15.528;2023-05-07T03:28:02;3.50;;;2.67;;
12663;SDS011;6396;58.490;15.528;2023-05-07T03:30:29;2.90;;;2.57;;
12663;SDS011;6396;58.490;15.528;2023-05-07T03:32:56;3.37;;;2.40;;
12663;SDS011;6396;58.490;15.528;2023-05-07T03:35:22;3.23;;;2.73;;
12663;SDS011;6396;58.490;15.528;2023-05-07T03:37:49;5.50;;;3.40;;
12663;SDS011;6396;58.490;15.528;2023-05-07T03:40:17;3.23;;;2.60;;
12663;SDS011;6396;58.490;15.528;2023-05-07T03:42:44;3.77;;;2.97;;
12663;SDS011;6396;58.490;15.528;2023-05-07T03:45:11;3.27;;;2.97;;
12663;SDS011;6396;58.490;15.528;2023-05-07T03:47:38;4.37;;;2.90;;
12663;SDS011;6396;58.490;15.528;2023-05-07T03:50:05;3.70;;;2.63;;
12663;SDS011;6396;58.490;15.528;2023-05-07T03:52:32;3.60;;;2.77;;
12663;SDS011;6396;58.490;15.528;2023-05-07T03:54:58;3.40;;;2.90;;
12663;SDS011;6396;58.490;15.528;2023-05-07T03:57:26;2.83;;;2.53;;
12663;SDS011;6396;58.490;15.528;2023-05-07T03:59:53;4.37;;;3.20;;
12663;SDS011;6396;58.490;15.528;2023-05-07T04:02:20;3.90;;;2.60;;
12663;SDS011;6396;58.490;15.528;2023-05-07T04:04:48;4.47;;;2.90;;
12663;SDS011;6396;58.490;15.528;2023-05-07T04:07:14;3.23;;;2.63;;
12663;SDS011;6396;58.490;15.528;2023-05-07T04:09:41;5.73;;;3.13;;
12663;SDS011;6396;58.490;15.528;2023-05-07T04:12:08;3.30;;;2.77;;
12663;SDS011;6396;58.490;15.528;2023-05-07T04:14:36;4.07;;;2.60;;
12663;SDS011;6396;58.490;15.528;2023-05-07T04:17:03;3.97;;;2.67;;
12663;SDS011;6396;58.490;15.528;2023-05-07T04:19:32;3.47;;;2.40;;
12663;SDS011;6396;58.490;15.528;2023-05-07T04:21:59;2.57;;;2.37;;
12663;SDS011;6396;58.490;15.528;2023-05-07T04:24:26;4.37;;;2.57;;
12663;SDS011;6396;58.490;15.528;2023-05-07T04:26:53;5.33;;;2.93;;
12663;SDS011;6396;58.490;15.528;2023-05-07T04:29:20;3.07;;;2.47;;
12663;SDS011;6396;58.490;15.528;2023-05-07T04:31:48;2.83;;;2.40;;
12663;SDS011;6396;58.490;15.528;2023-05-07T04:34:15;2.90;;;2.50;;
12663;SDS011;6396;58.490;15.528;2023-05-07T04:36:42;2.90;;;2.50;;
12663;SDS011;6396;58.490;15.528;2023-05-07T04:39:08;4.87;;;3.00;;
12663;SDS011;6396;58.490;15.528;2023-05-07T04:41:35;3.13;;;2.70;;
12663;SDS011;6396;58.490;15.528;2023-05-07T04:44:02;3.87;;;2.80;;
12663;SDS011;6396;58.490;15.528;2023-05-07T04:46:31;3.07;;;2.57;;
12663;SDS011;6396;58.490;15.528;2023-05-07T04:48:59;3.27;;;2.30;;
12663;SDS011;6396;58.490;15.528;2023-05-07T04:51:26;4.70;;;2.50;;
12663;SDS011;6396;58.490;15.528;2023-05-07T04:53:53;4.77;;;2.80;;
12663;SDS011;6396;58.490;15.528;2023-05-07T04:56:20;3.73;;;1.90;;
12663;SDS011;6396;58.490;15.528;2023-05-07T04:58:46;4.53;;;2.67;;
12663;SDS011;6396;58.490;15.528;2023-05-07T05:01:13;2.97;;;2.50;;
12663;SDS011;6396;58.490;15.528;2023-05-07T05:03:40;3.10;;;2.40;;
12663;SDS011;6396;58.490;15.528;2023-05-07T05:06:08;3.47;;;2.50;;
12663;SDS011;6396;58.490;15.528;2023-05-07T05:08:36;2.80;;;2.40;;
12663;SDS011;6396;58.490;15.528;2023-05-07T05:11:02;3.93;;;2.50;;
12663;SDS011;6396;58.490;15.528;2023-05-07T05:13:29;2.93;;;2.37;;
12663;SDS011;6396;58.490;15.528;2023-05-07T05:15:56;2.77;;;2.57;;
12663;SDS011;6396;58.490;15.528;2023-05-07T05:18:23;4.20;;;3.03;;
12663;SDS011;6396;58.490;15.528;2023-05-07T05:20:51;5.63;;;3.53;;
12663;SDS011;6396;58.490;15.528;2023-05-07T05:23:19;3.53;;;2.63;;
12663;SDS011;6396;58.490;15.528;2023-05-07T05:25:46;3.23;;;2.93;;
12663;SDS011;6396;58.490;15.528;2023-05-07T05:28:13;4.23;;;3.07;;
12663;SDS011;6396;58.490;15.528;2023-05-07T05:30:41;3.30;;;2.90;;
12663;SDS011;6396;58.490;15.528;2023-05-07T05:33:08;3.97;;;3.50;;
12663;SDS011;6396;58.490;15.528;2023-05-07T05:35:35;4.43;;;2.80;;
12663;SDS011;6396;58.490;15.528;2023-05-07T05:38:02;3.20;;;2.87;;
12663;SDS011;6396;58.490;15.528;2023-05-07T05:40:30;5.20;;;3.20;;
12663;SDS011;6396;58.490;15.528;2023-05-07T05:42:58;5.30;;;3.20;;
12663;SDS011;6396;58.490;15.528;2023-05-07T05:45:25;5.40;;;3.40;;
12663;SDS011;6396;58.490;15.528;2023-05-07T05:47:51;2.90;;;2.50;;
12663;SDS011;6396;58.490;15.528;2023-05-07T05:50:18;3.27;;;2.97;;
12663;SDS011;6396;58.490;15.528;2023-05-07T05:52:45;2.60;;;2.40;;
12663;SDS011;6396;58.490;15.528;2023-05-07T05:55:12;5.50;;;2.90;;
12663;SDS011;6396;58.490;15.528;2023-05-07T05:57:40;2.67;;;2.47;;
12663;SDS011;6396;58.490;15.528;2023-05-07T06:00:08;3.63;;;2.77;;
12663;SDS011;6396;58.490;15.528;2023-05-07T06:02:35;3.00;;;2.73;;
12663;SDS011;6396;58.490;15.528;2023-05-07T06:05:02;3.43;;;2.70;;
12663;SDS011;6396;58.490;15.528;2023-05-07T06:07:29;3.87;;;2.80;;
12663;SDS011;6396;58.490;15.528;2023-05-07T06:09:56;2.63;;;2.37;;
12663;SDS011;6396;58.490;15.528;2023-05-07T06:12:23;3.57;;;2.73;;
12663;SDS011;6396;58.490;15.528;2023-05-07T06:14:51;4.47;;;2.77;;
12663;SDS011;6396;58.490;15.528;2023-05-07T06:17:18;3.67;;;2.70;;
12663;SDS011;6396;58.490;15.528;2023-05-07T06:19:44;3.23;;;2.93;;
12663;SDS011;6396;58.490;15.528;2023-05-07T06:22:11;4.17;;;3.10;;
12663;SDS011;6396;58.490;15.528;2023-05-07T06:24:38;4.33;;;3.00;;
12663;SDS011;6396;58.490;15.528;2023-05-07T06:27:05;3.40;;;3.10;;
12663;SDS011;6396;58.490;15.528;2023-05-07T06:29:31;4.63;;;3.37;;
12663;SDS011;6396;58.490;15.528;2023-05-07T06:32:07;4.10;;;3.20;;
12663;SDS011;6396;58.490;15.528;2023-05-07T06:34:34;3.20;;;2.90;;
12663;SDS011;6396;58.490;15.528;2023-05-07T06:37:07;4.23;;;3.73;;
12663;SDS011;6396;58.490;15.528;2023-05-07T06:39:33;4.93;;;3.00;;
12663;SDS011;6396;58.490;15.528;2023-05-07T06:42:00;4.43;;;2.97;;
12663;SDS011;6396;58.490;15.528;2023-05-07T06:44:29;4.23;;;3.47;;
12663;SDS011;6396;58.490;15.528;2023-05-07T06:46:56;4.70;;;2.60;;
12663;SDS011;6396;58.490;15.528;2023-05-07T06:49:24;4.63;;;2.73;;
12663;SDS011;6396;58.490;15.528;2023-05-07T06:51:57;2.67;;;2.47;;
12663;SDS011;6396;58.490;15.528;2023-05-07T06:54:24;2.93;;;2.60;;
12663;SDS011;6396;58.490;15.528;2023-05-07T06:56:50;3.63;;;2.50;;
12663;SDS011;6396;58.490;15.528;2023-05-07T06:59:17;3.50;;;2.50;;
12663;SDS011;6396;58.490;15.528;2023-05-07T07:01:45;3.77;;;2.57;;
12663;SDS011;6396;58.490;15.528;2023-05-07T07:04:12;4.10;;;2.63;;
12663;SDS011;6396;58.490;15.528;2023-05-07T07:06:40;4.47;;;2.40;;
12663;SDS011;6396;58.490;15.528;2023-05-07T07:09:07;4.40;;;2.63;;
12663;SDS011;6396;58.490;15.528;2023-05-07T07:11:34;2.60;;;2.40;;
12663;SDS011;6396;58.490;15.528;2023-05-07T07:14:01;4.20;;;2.67;;
12663;SDS011;6396;58.490;15.528;2023-05-07T07:16:30;3.27;;;2.30;;
12663;SDS011;6396;58.490;15.528;2023-05-07T07:18:56;2.70;;;2.50;;
12663;SDS011;6396;58.490;15.528;2023-05-07T07:21:23;3.23;;;2.57;;
12663;SDS011;6396;58.490;15.528;2023-05-07T07:23:51;2.93;;;2.27;;
12663;SDS011;6396;58.490;15.528;2023-05-07T07:26:18;4.10;;;1.80;;
12663;SDS011;6396;58.490;15.528;2023-05-07T07:28:45;3.40;;;2.43;;
12663;SDS011;6396;58.490;15.528;2023-05-07T07:31:15;3.03;;;2.23;;
12663;SDS011;6396;58.490;15.528;2023-05-07T07:33:43;2.57;;;2.07;;
12663;SDS011;6396;58.490;15.528;2023-05-07T07:36:10;3.10;;;2.23;;
12663;SDS011;6396;58.490;15.528;2023-05-07T07:38:37;3.57;;;2.47;;
12663;SDS011;6396;58.490;15.528;2023-05-07T07:41:05;2.40;;;2.00;;
12663;SDS011;6396;58.490;15.528;2023-05-07T07:43:34;2.93;;;2.40;;
12663;SDS011;6396;58.490;15.528;2023-05-07T07:46:02;3.43;;;2.50;;
12663;SDS011;6396;58.490;15.528;2023-05-07T07:48:28;3.77;;;2.20;;
12663;SDS011;6396;58.490;15.528;2023-05-07T07:50:55;2.63;;;2.30;;
12663;SDS011;6396;58.490;15.528;2023-05-07T07:53:22;2.77;;;2.40;;
12663;SDS011;6396;58.490;15.528;2023-05-07T07:55:49;2.90;;;2.23;;
12663;SDS011;6396;58.490;15.528;2023-05-07T07:58:17;2.77;;;2.13;;
12663;SDS011;6396;58.490;15.528;2023-05-07T08:00:44;3.53;;;2.30;;
12663;SDS011;6396;58.490;15.528;2023-05-07T08:03:12;2.50;;;2.30;;
12663;SDS011;6396;58.490;15.528;2023-05-07T08:05:39;3.83;;;2.23;;
12663;SDS011;6396;58.490;15.528;2023-05-07T08:08:06;2.50;;;2.27;;
12663;SDS011;6396;58.490;15.528;2023-05-07T08:10:34;3.40;;;2.30;;
12663;SDS011;6396;58.490;15.528;2023-05-07T08:13:03;3.10;;;2.23;;
12663;SDS011;6396;58.490;15.528;2023-05-07T08:15:31;2.80;;;2.60;;
12663;SDS011;6396;58.490;15.528;2023-05-07T08:17:58;3.87;;;2.33;;
12663;SDS011;6396;58.490;15.528;2023-05-07T08:20:25;2.57;;;2.30;;
12663;SDS011;6396;58.490;15.528;2023-05-07T08:22:52;4.20;;;2.20;;
12663;SDS011;6396;58.490;15.528;2023-05-07T08:25:19;2.87;;;2.50;;
12663;SDS011;6396;58.490;15.528;2023-05-07T08:27:46;3.03;;;2.07;;
12663;SDS011;6396;58.490;15.528;2023-05-07T08:30:13;4.03;;;2.37;;
12663;SDS011;6396;58.490;15.528;2023-05-07T08:32:42;3.53;;;2.30;;
12663;SDS011;6396;58.490;15.528;2023-05-07T08:35:08;2.40;;;1.80;;
12663;SDS011;6396;58.490;15.528;2023-05-07T08:37:37;2.73;;;2.43;;
12663;SDS011;6396;58.490;15.528;2023-05-07T08:40:05;2.37;;;2.17;;
12663;SDS011;6396;58.490;15.528;2023-05-07T08:42:33;2.27;;;1.90;;
12663;SDS011;6396;58.490;15.528;2023-05-07T08:45:02;2.23;;;2.03;;
12663;SDS011;6396;58.490;15.528;2023-05-07T08:47:33;2.30;;;1.80;;
12663;SDS011;6396;58.490;15.528;2023-05-07T08:50:07;2.13;;;2.00;;
12663;SDS011;6396;58.490;15.528;2023-05-07T08:52:34;2.73;;;2.00;;
12663;SDS011;6396;58.490;15.528;2023-05-07T08:55:02;2.57;;;2.03;;
12663;SDS011;6396;58.490;15.528;2023-05-07T08:57:29;2.73;;;2.10;;
12663;SDS011;6396;58.490;15.528;2023-05-07T08:59:56;2.27;;;2.07;;
12663;SDS011;6396;58.490;15.528;2023-05-07T09:02:23;2.40;;;2.20;;
12663;SDS011;6396;58.490;15.528;2023-05-07T09:04:50;2.77;;;1.73;;
12663;SDS011;6396;58.490;15.528;2023-05-07T09:07:20;2.40;;;2.10;;
12663;SDS011;6396;58.490;15.528;2023-05-07T09:09:47;2.70;;;2.00;;
12663;SDS011;6396;58.490;15.528;2023-05-07T09:12:14;2.60;;;1.87;;
12663;SDS011;6396;58.490;15.528;2023-05-07T09:14:41;1.97;;;1.80;;
12663;SDS011;6396;58.490;15.528;2023-05-07T09:17:07;2.13;;;1.77;;
12663;SDS011;6396;58.490;15.528;2023-05-07T09:19:34;2.37;;;2.17;;
12663;SDS011;6396;58.490;15.528;2023-05-07T09:22:01;2.50;;;2.17;;
12663;SDS011;6396;58.490;15.528;2023-05-07T09:24:30;2.43;;;2.00;;
12663;SDS011;6396;58.490;15.528;2023-05-07T09:27:00;2.90;;;1.83;;
12663;SDS011;6396;58.490;15.528;2023-05-07T09:29:27;2.70;;;2.20;;
12663;SDS011;6396;58.490;15.528;2023-05-07T09:31:55;4.63;;;2.10;;
12663;SDS011;6396;58.490;15.528;2023-05-07T09:34:22;2.10;;;1.90;;
12663;SDS011;6396;58.490;15.528;2023-05-07T09:36:49;2.60;;;2.03;;
12663;SDS011;6396;58.490;15.528;2023-05-07T09:39:16;2.70;;;2.03;;
12663;SDS011;6396;58.490;15.528;2023-05-07T09:41:44;4.23;;;2.10;;
12663;SDS011;6396;58.490;15.528;2023-05-07T09:44:12;3.17;;;1.87;;
12663;SDS011;6396;58.490;15.528;2023-05-07T09:46:41;4.43;;;1.90;;
12663;SDS011;6396;58.490;15.528;2023-05-07T09:49:11;2.90;;;2.30;;
12663;SDS011;6396;58.490;15.528;2023-05-07T09:51:43;2.93;;;2.00;;
12663;SDS011;6396;58.490;15.528;2023-05-07T09:54:14;2.33;;;2.13;;
12663;SDS011;6396;58.490;15.528;2023-05-07T09:56:42;2.47;;;2.10;;
12663;SDS011;6396;58.490;15.528;2023-05-07T09:59:11;2.40;;;1.93;;
12663;SDS011;6396;58.490;15.528;2023-05-07T10:01:41;2.50;;;1.97;;
12663;SDS011;6396;58.490;15.528;2023-05-07T10:04:08;3.57;;;1.90;;
12663;SDS011;6396;58.490;15.528;2023-05-07T10:06:36;2.07;;;1.90;;
12663;SDS011;6396;58.490;15.528;2023-05-07T10:09:04;2.87;;;2.00;;
12663;SDS011;6396;58.490;15.528;2023-05-07T10:11:31;3.33;;;2.20;;
12663;SDS011;6396;58.490;15.528;2023-05-07T10:13:59;2.00;;;1.80;;
12663;SDS011;6396;58.490;15.528;2023-05-07T10:16:28;2.50;;;1.80;;
12663;SDS011;6396;58.490;15.528;2023-05-07T10:18:57;4.20;;;2.30;;
12663;SDS011;6396;58.490;15.528;2023-05-07T10:21:26;2.30;;;2.10;;
12663;SDS011;6396;58.490;15.528;2023-05-07T10:23:57;1.90;;;1.70;;
12663;SDS011;6396;58.490;15.528;2023-05-07T10:26:27;4.03;;;2.07;;
12663;SDS011;6396;58.490;15.528;2023-05-07T10:28:56;2.00;;;1.70;;
12663;SDS011;6396;58.490;15.528;2023-05-07T10:34:28;2.00;;;1.80;;
12663;SDS011;6396;58.490;15.528;2023-05-07T10:36:59;1.80;;;1.70;;
12663;SDS011;6396;58.490;15.528;2023-05-07T10:39:27;2.50;;;1.87;;
12663;SDS011;6396;58.490;15.528;2023-05-07T10:41:53;2.33;;;2.00;;
12663;SDS011;6396;58.490;15.528;2023-05-07T10:44:26;2.80;;;1.80;;
12663;SDS011;6396;58.490;15.528;2023-05-07T10:47:03;1.83;;;1.60;;
12663;SDS011;6396;58.490;15.528;2023-05-07T10:49:32;2.73;;;1.87;;
12663;SDS011;6396;58.490;15.528;2023-05-07T10:52:12;4.17;;;2.30;;
12663;SDS011;6396;58.490;15.528;2023-05-07T10:54:42;3.03;;;1.87;;
12663;SDS011;6396;58.490;15.528;2023-05-07T11:00:40;2.73;;;1.90;;
12663;SDS011;6396;58.490;15.528;2023-05-07T11:03:10;2.80;;;2.00;;
12663;SDS011;6396;58.490;15.528;2023-05-07T11:05:38;2.20;;;2.00;;
12663;SDS011;6396;58.490;15.528;2023-05-07T11:08:05;2.27;;;2.00;;
12663;SDS011;6396;58.490;15.528;2023-05-07T11:10:48;3.67;;;1.97;;
12663;SDS011;6396;58.490;15.528;2023-05-07T11:13:16;3.23;;;1.70;;
12663;SDS011;6396;58.490;15.528;2023-05-07T11:15:45;2.50;;;1.70;;
12663;SDS011;6396;58.490;15.528;2023-05-07T11:18:17;1.77;;;1.67;;
12663;SDS011;6396;58.490;15.528;2023-05-07T11:20:53;2.00;;;1.80;;
12663;SDS011;6396;58.490;15.528;2023-05-07T11:26:23;2.40;;;1.83;;
12663;SDS011;6396;58.490;15.528;2023-05-07T11:28:51;2.97;;;1.90;;
12663;SDS011;6396;58.490;15.528;2023-05-07T11:31:22;2.97;;;1.53;;
12663;SDS011;6396;58.490;15.528;2023-05-07T11:33:51;1.80;;;1.60;;
12663;SDS011;6396;58.490;15.528;2023-05-07T11:36:20;1.67;;;1.43;;
12663;SDS011;6396;58.490;15.528;2023-05-07T11:38:48;2.77;;;1.57;;
12663;SDS011;6396;58.490;15.528;2023-05-07T11:41:15;2.23;;;1.80;;
12663;SDS011;6396;58.490;15.528;2023-05-07T11:43:54;2.10;;;1.80;;
12663;SDS011;6396;58.490;15.528;2023-05-07T11:46:26;1.87;;;1.70;;
12663;SDS011;6396;58.490;15.528;2023-05-07T11:48:53;2.53;;;1.60;;
12663;SDS011;6396;58.490;15.528;2023-05-07T11:51:23;2.50;;;1.63;;
12663;SDS011;6396;58.490;15.528;2023-05-07T11:53:53;2.50;;;1.50;;
12663;SDS011;6396;58.490;15.528;2023-05-07T11:56:20;3.10;;;1.50;;
12663;SDS011;6396;58.490;15.528;2023-05-07T11:58:47;1.60;;;1.50;;
12663;SDS011;6396;58.490;15.528;2023-05-07T12:01:17;1.77;;;1.40;;
12663;SDS011;6396;58.490;15.528;2023-05-07T12:03:44;1.83;;;1.70;;
12663;SDS011;6396;58.490;15.528;2023-05-07T12:06:12;3.20;;;1.60;;
12663;SDS011;6396;58.490;15.528;2023-05-07T12:08:42;2.77;;;1.63;;
12663;SDS011;6396;58.490;15.528;2023-05-07T12:11:14;1.63;;;1.53;;
12663;SDS011;6396;58.490;15.528;2023-05-07T12:13:43;2.80;;;1.60;;
12663;SDS011;6396;58.490;15.528;2023-05-07T12:16:10;3.20;;;1.80;;
12663;SDS011;6396;58.490;15.528;2023-05-07T12:18:37;2.73;;;1.57;;
12663;SDS011;6396;58.490;15.528;2023-05-07T12:21:05;4.07;;;1.93;;
12663;SDS011;6396;58.490;15.528;2023-05-07T12:23:33;2.07;;;1.53;;
12663;SDS011;6396;58.490;15.528;2023-05-07T12:26:02;4.27;;;1.67;;
12663;SDS011;6396;58.490;15.528;2023-05-07T12:28:29;3.20;;;1.47;;
12663;SDS011;6396;58.490;15.528;2023-05-07T12:30:57;1.77;;;1.67;;
12663;SDS011;6396;58.490;15.528;2023-05-07T12:33:25;2.77;;;1.63;;
12663;SDS011;6396;58.490;15.528;2023-05-07T12:35:54;2.07;;;1.67;;
12663;SDS011;6396;58.490;15.528;2023-05-07T12:38:21;1.80;;;1.30;;
12663;SDS011;6396;58.490;15.528;2023-05-07T12:40:49;1.50;;;1.40;;
12663;SDS011;6396;58.490;15.528;2023-05-07T12:43:21;1.87;;;1.50;;
12663;SDS011;6396;58.490;15.528;2023-05-07T12:45:51;2.67;;;1.23;;
12663;SDS011;6396;58.490;15.528;2023-05-07T12:48:20;2.80;;;1.57;;
12663;SDS011;6396;58.490;15.528;2023-05-07T12:50:48;4.23;;;1.87;;
12663;SDS011;6396;58.490;15.528;2023-05-07T12:53:16;1.70;;;1.60;;
12663;SDS011;6396;58.490;15.528;2023-05-07T12:55:43;1.90;;;1.77;;
12663;SDS011;6396;58.490;15.528;2023-05-07T12:58:17;2.70;;;1.70;;
12663;SDS011;6396;58.490;15.528;2023-05-07T13:00:48;2.90;;;1.50;;
12663;SDS011;6396;58.490;15.528;2023-05-07T13:03:22;2.27;;;1.40;;
12663;SDS011;6396;58.490;15.528;2023-05-07T13:05:54;3.10;;;1.70;;
12663;SDS011;6396;58.490;15.528;2023-05-07T13:08:25;1.50;;;1.30;;
12663;SDS011;6396;58.490;15.528;2023-05-07T13:10:53;1.77;;;1.60;;
12663;SDS011;6396;58.490;15.528;2023-05-07T13:13:20;2.47;;;1.50;;
12663;SDS011;6396;58.490;15.528;2023-05-07T13:15:49;2.03;;;1.60;;
12663;SDS011;6396;58.490;15.528;2023-05-07T13:18:16;3.53;;;1.63;;
12663;SDS011;6396;58.490;15.528;2023-05-07T13:20:43;2.10;;;1.40;;
12663;SDS011;6396;58.490;15.528;2023-05-07T13:23:10;2.77;;;1.27;;
12663;SDS011;6396;58.490;15.528;2023-05-07T13:25:37;4.57;;;1.77;;
12663;SDS011;6396;58.490;15.528;2023-05-07T13:28:04;1.60;;;1.50;;
12663;SDS011;6396;58.490;15.528;2023-05-07T13:30:30;2.80;;;1.50;;
12663;SDS011;6396;58.490;15.528;2023-05-07T13:32:59;2.70;;;1.57;;
12663;SDS011;6396;58.490;15.528;2023-05-07T13:35:26;4.10;;;1.67;;
12663;SDS011;6396;58.490;15.528;2023-05-07T13:37:53;1.57;;;1.40;;
12663;SDS011;6396;58.490;15.528;2023-05-07T13:40:20;3.27;;;1.57;;
12663;SDS011;6396;58.490;15.528;2023-05-07T13:42:48;1.77;;;1.50;;
12663;SDS011;6396;58.490;15.528;2023-05-07T13:45:15;1.80;;;1.70;;
12663;SDS011;6396;58.490;15.528;2023-05-07T13:47:42;2.33;;;1.50;;
12663;SDS011;6396;58.490;15.528;2023-05-07T13:50:10;1.90;;;1.73;;
12663;SDS011;6396;58.490;15.528;2023-05-07T13:52:40;2.13;;;1.57;;
12663;SDS011;6396;58.490;15.528;2023-05-07T13:55:08;3.10;;;1.40;;
12663;SDS011;6396;58.490;15.528;2023-05-07T13:57:35;2.60;;;1.57;;
12663;SDS011;6396;58.490;15.528;2023-05-07T14:00:02;4.50;;;1.60;;
12663;SDS011;6396;58.490;15.528;2023-05-07T14:02:30;4.07;;;1.70;;
12663;SDS011;6396;58.490;15.528;2023-05-07T14:04:57;3.43;;;1.40;;
12663;SDS011;6396;58.490;15.528;2023-05-07T14:07:25;3.20;;;1.50;;
12663;SDS011;6396;58.490;15.528;2023-05-07T14:09:52;2.50;;;1.60;;
12663;SDS011;6396;58.490;15.528;2023-05-07T14:12:19;1.97;;;1.40;;
12663;SDS011;6396;58.490;15.528;2023-05-07T14:14:45;1.80;;;1.60;;
12663;SDS011;6396;58.490;15.528;2023-05-07T14:17:15;2.10;;;1.30;;
12663;SDS011;6396;58.490;15.528;2023-05-07T14:19:42;1.40;;;1.30;;
12663;SDS011;6396;58.490;15.528;2023-05-07T14:22:09;1.83;;;1.50;;
12663;SDS011;6396;58.490;15.528;2023-05-07T14:24:37;1.73;;;1.53;;
12663;SDS011;6396;58.490;15.528;2023-05-07T14:27:04;2.17;;;1.40;;
12663;SDS011;6396;58.490;15.528;2023-05-07T14:29:32;2.90;;;1.80;;
12663;SDS011;6396;58.490;15.528;2023-05-07T14:32:00;1.60;;;1.50;;
12663;SDS011;6396;58.490;15.528;2023-05-07T14:34:28;3.10;;;1.80;;
12663;SDS011;6396;58.490;15.528;2023-05-07T14:36:55;2.07;;;1.70;;
12663;SDS011;6396;58.490;15.528;2023-05-07T14:39:21;4.17;;;1.50;;
12663;SDS011;6396;58.490;15.528;2023-05-07T14:41:50;1.97;;;1.50;;
12663;SDS011;6396;58.490;15.528;2023-05-07T14:44:16;2.90;;;1.50;;
12663;SDS011;6396;58.490;15.528;2023-05-07T14:46:43;1.40;;;1.30;;
12663;SDS011;6396;58.490;15.528;2023-05-07T14:49:10;3.50;;;1.60;;
12663;SDS011;6396;58.490;15.528;2023-05-07T14:51:42;4.70;;;1.77;;
12663;SDS011;6396;58.490;15.528;2023-05-07T14:54:09;1.50;;;1.40;;
12663;SDS011;6396;58.490;15.528;2023-05-07T14:56:36;1.90;;;1.40;;
12663;SDS011;6396;58.490;15.528;2023-05-07T14:59:04;2.03;;;1.60;;
12663;SDS011;6396;58.490;15.528;2023-05-07T15:01:31;2.07;;;1.50;;